Time;durP1;ratioP1;P1;durP2;ratioP2;P2;SDS_P1;SDS_P2;PMS_P1;PMS_P2;Temp;Humidity;BMP_temperature;BMP_pressure;BME280_temperature;BME280_humidity;BME280_pressure;Samples;Min_cycle;Max_cycle;Signal;HPM_P1;HPM_P2
2022/04/08 00:02:18;;;;;;;5.63;1.02;;;;;;;;;;4918088;29;20058;-66
2022/04/08 00:04:44;;;;;;;6.35;1.17;;;;;;;;;;4918017;29;20044;-67
2022/04/08 00:07:10;;;;;;;7.85;1.55;;;;;;;;;;4916194;29;20479;-67
2022/04/08 00:09:36;;;;;;;5.38;1.20;;;;;;;;;;4918055;29;20415;-67
2022/04/08 00:12:02;;;;;;;8.50;1.48;;;;;;;;;;4917995;29;20093;-67
2022/04/08 00:14:28;;;;;;;12.13;1.10;;;;;;;;;;4917319;29;20472;-67
2022/04/08 00:16:54;;;;;;;7.40;1.10;;;;;;;;;;4917799;29;20475;-67
2022/04/08 00:19:20;;;;;;;6.07;0.95;;;;;;;;;;4918009;29;20059;-67
2022/04/08 00:21:49;;;;;;;13.10;1.50;;;;;;;;;;4916482;29;20052;-67
2022/04/08 00:24:16;;;;;;;8.77;1.83;;;;;;;;;;4917796;29;20391;-67
2022/04/08 00:26:42;;;;;;;9.00;1.25;;;;;;;;;;4929382;29;20099;-67
2022/04/08 00:29:08;;;;;;;7.60;1.45;;;;;;;;;;4936169;29;20035;-67
2022/04/08 00:31:34;;;;;;;7.68;1.20;;;;;;;;;;4936364;29;20040;-67
2022/04/08 00:34:00;;;;;;;7.10;1.80;;;;;;;;;;4936668;29;20508;-67
2022/04/08 00:36:26;;;;;;;5.15;0.98;;;;;;;;;;4936069;29;20047;-67
2022/04/08 00:38:52;;;;;;;9.30;1.00;;;;;;;;;;4936386;29;20043;-67
2022/04/08 00:41:18;;;;;;;4.88;1.00;;;;;;;;;;4936492;29;20051;-67
2022/04/08 00:43:44;;;;;;;4.97;0.98;;;;;;;;;;4934180;29;20098;-67
2022/04/08 00:46:11;;;;;;;4.60;0.80;;;;;;;;;;4936384;29;20036;-67
2022/04/08 00:48:37;;;;;;;6.25;1.20;;;;;;;;;;4936275;29;20546;-67
2022/04/08 00:51:04;;;;;;;5.47;1.00;;;;;;;;;;4935644;29;20383;-67
2022/04/08 00:53:31;;;;;;;5.72;1.02;;;;;;;;;;4936331;29;20040;-67
2022/04/08 00:55:57;;;;;;;6.22;0.70;;;;;;;;;;4936055;29;20619;-67
2022/04/08 00:58:24;;;;;;;5.05;0.60;;;;;;;;;;4935379;29;20051;-67
2022/04/08 01:00:50;;;;;;;4.35;0.50;;;;;;;;;;4935747;29;20135;-67
2022/04/08 01:03:16;;;;;;;2.50;0.70;;;;;;;;;;4935581;29;20054;-66
2022/04/08 01:05:42;;;;;;;3.92;0.55;;;;;;;;;;4935315;29;20514;-66
2022/04/08 01:08:12;;;;;;;7.63;0.77;;;;;;;;;;4935680;29;20103;-66
2022/04/08 01:10:41;;;;;;;7.95;0.80;;;;;;;;;;4935990;29;20044;-66
2022/04/08 01:13:08;;;;;;;4.50;0.60;;;;;;;;;;4934922;29;20046;-66
2022/04/08 01:15:34;;;;;;;6.65;1.08;;;;;;;;;;4935702;29;20426;-66
2022/04/08 01:18:00;;;;;;;5.38;0.90;;;;;;;;;;4935372;29;20063;-66
2022/04/08 01:20:26;;;;;;;3.67;0.82;;;;;;;;;;4934975;29;20043;-66
2022/04/08 01:22:53;;;;;;;7.32;0.93;;;;;;;;;;4935574;29;20048;-66
2022/04/08 01:25:19;;;;;;;4.70;0.80;;;;;;;;;;4934382;29;20143;-66
2022/04/08 01:27:45;;;;;;;5.68;1.67;;;;;;;;;;4915939;29;20545;-66
2022/04/08 01:30:16;;;;;;;3.78;1.08;;;;;;;;;;4916560;29;20510;-66
2022/04/08 01:32:42;;;;;;;3.72;1.00;;;;;;;;;;4915295;29;20048;-66
2022/04/08 01:35:08;;;;;;;4.50;1.00;;;;;;;;;;4915839;29;20044;-66
2022/04/08 01:37:34;;;;;;;5.40;1.10;;;;;;;;;;4914956;29;20044;-66
2022/04/08 01:40:01;;;;;;;7.95;1.00;;;;;;;;;;4914929;29;20079;-66
2022/04/08 01:42:27;;;;;;;6.50;1.10;;;;;;;;;;4915359;29;20139;-66
2022/04/08 01:44:53;;;;;;;4.40;0.95;;;;;;;;;;4916296;29;20058;-66
2022/04/08 01:47:20;;;;;;;6.80;1.20;;;;;;;;;;4916334;29;20131;-66
2022/04/08 01:49:46;;;;;;;6.72;1.10;;;;;;;;;;4915535;29;20040;-66
2022/04/08 01:52:12;;;;;;;9.82;1.00;;;;;;;;;;4916165;29;20144;-66
2022/04/08 01:54:39;;;;;;;5.60;0.93;;;;;;;;;;4916057;29;20418;-66
2022/04/08 01:57:05;;;;;;;7.25;1.80;;;;;;;;;;4913845;29;20075;-66
2022/04/08 01:59:31;;;;;;;8.13;1.30;;;;;;;;;;4914648;29;20063;-66
2022/04/08 02:02:00;;;;;;;5.72;1.08;;;;;;;;;;4915961;29;20048;-66
2022/04/08 02:04:26;;;;;;;8.88;1.30;;;;;;;;;;4913801;29;20091;-66
2022/04/08 02:06:52;;;;;;;6.40;0.80;;;;;;;;;;4915925;29;20131;-66
2022/04/08 02:09:18;;;;;;;6.45;1.10;;;;;;;;;;4915972;29;20454;-66
2022/04/08 02:11:45;;;;;;;9.57;1.58;;;;;;;;;;4915345;29;20040;-66
2022/04/08 02:14:11;;;;;;;5.97;0.95;;;;;;;;;;4914352;29;20130;-66
2022/04/08 02:16:37;;;;;;;9.23;1.17;;;;;;;;;;4915681;29;20051;-66
2022/04/08 02:19:03;;;;;;;5.85;1.30;;;;;;;;;;4914000;29;20435;-66
2022/04/08 02:21:29;;;;;;;5.60;0.95;;;;;;;;;;4914224;29;20055;-67
2022/04/08 02:23:55;;;;;;;6.60;1.10;;;;;;;;;;4915334;29;20055;-67
2022/04/08 02:26:21;;;;;;;9.13;1.20;;;;;;;;;;4924071;29;20047;-67
2022/04/08 02:28:47;;;;;;;5.55;1.20;;;;;;;;;;4934504;29;20127;-67
2022/04/08 02:31:14;;;;;;;6.90;1.30;;;;;;;;;;4965051;28;20577;-67
2022/04/08 02:33:40;;;;;;;7.38;1.40;;;;;;;;;;4933692;29;20836;-67
2022/04/08 02:36:07;;;;;;;10.32;1.63;;;;;;;;;;4965240;28;20044;-67
2022/04/08 02:38:34;;;;;;;8.50;1.20;;;;;;;;;;4934398;29;20043;-66
2022/04/08 02:41:00;;;;;;;6.05;1.40;;;;;;;;;;4933811;29;20119;-66
2022/04/08 02:43:26;;;;;;;10.25;1.40;;;;;;;;;;4934034;29;20575;-67
2022/04/08 02:45:52;;;;;;;8.40;1.17;;;;;;;;;;4934142;29;20075;-67
2022/04/08 02:48:18;;;;;;;4.80;1.23;;;;;;;;;;4933757;29;20099;-67
2022/04/08 02:50:45;;;;;;;10.40;1.52;;;;;;;;;;4934336;29;20040;-67
2022/04/08 02:53:11;;;;;;;7.10;1.30;;;;;;;;;;4934392;29;20660;-67
2022/04/08 02:55:37;;;;;;;11.52;1.80;;;;;;;;;;4933757;29;20055;-67
2022/04/08 02:58:03;;;;;;;11.85;1.70;;;;;;;;;;4964917;28;20826;-67
2022/04/08 03:00:29;;;;;;;6.40;1.30;;;;;;;;;;4964682;28;20090;-67
2022/04/08 03:02:56;;;;;;;6.50;1.13;;;;;;;;;;4934139;29;20389;-67
2022/04/08 03:05:22;;;;;;;9.38;1.88;;;;;;;;;;4933777;29;20043;-67
2022/04/08 03:07:48;;;;;;;8.38;1.08;;;;;;;;;;4934219;29;20148;-67
2022/04/08 03:10:14;;;;;;;11.40;1.63;;;;;;;;;;4933892;29;20050;-67
2022/04/08 03:12:40;;;;;;;6.57;1.35;;;;;;;;;;4933541;29;20044;-67
2022/04/08 03:15:07;;;;;;;9.68;1.20;;;;;;;;;;4964921;28;20129;-67
2022/04/08 03:17:33;;;;;;;5.68;1.33;;;;;;;;;;4932877;29;20495;-67
2022/04/08 03:19:59;;;;;;;5.47;1.27;;;;;;;;;;4933645;29;20043;-67
2022/04/08 03:22:25;;;;;;;9.43;2.40;;;;;;;;;;4934187;29;20372;-67
2022/04/08 03:24:51;;;;;;;12.07;1.80;;;;;;;;;;4933873;29;20526;-67
2022/04/08 03:27:18;;;;;;;6.68;1.45;;;;;;;;;;4950575;28;20042;-67
2022/04/08 03:29:44;;;;;;;6.43;1.38;;;;;;;;;;4934060;29;20050;-67
2022/04/08 03:32:11;;;;;;;9.13;2.33;;;;;;;;;;4933889;29;20043;-67
2022/04/08 03:34:37;;;;;;;10.15;1.48;;;;;;;;;;4933237;29;20454;-67
2022/04/08 03:37:04;;;;;;;14.27;1.67;;;;;;;;;;4933502;29;20043;-67
2022/04/08 03:39:30;;;;;;;5.90;1.20;;;;;;;;;;4933730;29;20949;-67
2022/04/08 03:41:57;;;;;;;8.05;1.40;;;;;;;;;;4933182;29;20036;-67
2022/04/08 03:44:23;;;;;;;5.22;1.42;;;;;;;;;;4933732;29;20265;-67
2022/04/08 03:46:49;;;;;;;12.82;1.60;;;;;;;;;;4932217;29;20513;-67
2022/04/08 03:49:15;;;;;;;4.38;1.60;;;;;;;;;;4933171;29;20047;-67
2022/04/08 03:51:41;;;;;;;4.65;1.40;;;;;;;;;;4933924;29;20383;-67
2022/04/08 03:54:08;;;;;;;4.65;1.02;;;;;;;;;;4933762;29;20048;-67
2022/04/08 03:56:34;;;;;;;5.60;1.10;;;;;;;;;;4934966;29;20130;-67
2022/04/08 03:59:00;;;;;;;12.05;1.58;;;;;;;;;;4937360;29;20043;-67
2022/04/08 04:01:26;;;;;;;6.93;1.50;;;;;;;;;;4936920;29;20462;-67
2022/04/08 04:03:52;;;;;;;8.15;1.50;;;;;;;;;;4936086;29;20052;-67
2022/04/08 04:06:18;;;;;;;10.93;1.50;;;;;;;;;;4937296;29;20477;-67
2022/04/08 04:08:44;;;;;;;7.93;1.15;;;;;;;;;;4936874;29;20126;-67
2022/04/08 04:11:15;;;;;;;8.43;1.20;;;;;;;;;;4936557;29;20111;-67
2022/04/08 04:13:44;;;;;;;8.43;1.60;;;;;;;;;;4936782;29;20059;-67
2022/04/08 04:16:10;;;;;;;10.77;1.52;;;;;;;;;;4936986;29;20093;-67
2022/04/08 04:18:37;;;;;;;9.00;2.30;;;;;;;;;;4934683;29;20571;-67
2022/04/08 04:21:03;;;;;;;6.70;1.00;;;;;;;;;;4936905;29;20040;-67
2022/04/08 04:23:31;;;;;;;8.85;1.20;;;;;;;;;;4936634;29;20538;-67
2022/04/08 04:25:57;;;;;;;3.70;1.20;;;;;;;;;;4936135;29;20099;-67
2022/04/08 04:28:23;;;;;;;4.75;1.20;;;;;;;;;;4936624;29;20812;-67
2022/04/08 04:30:53;;;;;;;3.72;1.00;;;;;;;;;;4936556;29;20073;-67
2022/04/08 04:33:18;;;;;;;5.43;1.00;;;;;;;;;;4935960;29;20048;-67
2022/04/08 04:35:45;;;;;;;5.55;0.93;;;;;;;;;;4936611;29;20079;-67
2022/04/08 04:38:11;;;;;;;3.05;1.00;;;;;;;;;;4934896;29;20058;-67
2022/04/08 04:40:37;;;;;;;4.22;1.10;;;;;;;;;;4935570;29;20083;-67
2022/04/08 04:43:03;;;;;;;9.80;1.27;;;;;;;;;;4936388;29;20044;-67
2022/04/08 04:45:29;;;;;;;4.10;1.40;;;;;;;;;;4936026;29;20044;-67
2022/04/08 04:47:55;;;;;;;6.90;1.10;;;;;;;;;;4935424;29;20460;-67
2022/04/08 04:50:21;;;;;;;4.07;1.00;;;;;;;;;;4936033;29;20526;-67
2022/04/08 04:52:48;;;;;;;7.45;1.15;;;;;;;;;;4936103;29;20040;-67
2022/04/08 04:55:14;;;;;;;2.47;1.13;;;;;;;;;;4935441;29;20043;-67
2022/04/08 04:57:40;;;;;;;6.22;1.33;;;;;;;;;;4936183;29;20043;-69
2022/04/08 05:00:09;;;;;;;4.55;1.20;;;;;;;;;;4935860;29;20582;-67
2022/04/08 05:02:36;;;;;;;5.63;1.15;;;;;;;;;;4935480;29;20047;-67
2022/04/08 05:05:02;;;;;;;3.72;1.23;;;;;;;;;;4936010;29;20059;-67
2022/04/08 05:07:28;;;;;;;6.40;1.85;;;;;;;;;;4935690;29;20048;-67
2022/04/08 05:09:54;;;;;;;3.65;1.30;;;;;;;;;;4965916;28;20039;-67
2022/04/08 05:12:20;;;;;;;4.32;1.48;;;;;;;;;;4966613;28;20047;-67
2022/04/08 05:14:46;;;;;;;2.53;1.05;;;;;;;;;;4934429;29;20062;-67
2022/04/08 05:17:12;;;;;;;10.20;1.17;;;;;;;;;;4935139;29;20674;-67
2022/04/08 05:19:38;;;;;;;5.40;1.02;;;;;;;;;;4935642;29;20047;-67
2022/04/08 05:22:04;;;;;;;5.70;0.95;;;;;;;;;;4935245;29;20044;-67
2022/04/08 05:24:30;;;;;;;5.00;1.10;;;;;;;;;;4934797;29;20047;-67
2022/04/08 05:26:56;;;;;;;8.68;1.92;;;;;;;;;;4920268;29;20062;-67
2022/04/08 05:29:23;;;;;;;4.28;1.50;;;;;;;;;;4916577;29;20050;-68
2022/04/08 05:31:49;;;;;;;9.18;1.55;;;;;;;;;;4915912;29;20040;-68
2022/04/08 05:34:15;;;;;;;6.47;1.02;;;;;;;;;;4914914;29;20052;-68
2022/04/08 05:36:41;;;;;;;4.38;1.27;;;;;;;;;;4915854;29;20132;-68
2022/04/08 05:39:08;;;;;;;7.78;1.30;;;;;;;;;;4914189;29;20051;-68
2022/04/08 05:41:34;;;;;;;9.07;1.33;;;;;;;;;;4916518;29;20044;-68
2022/04/08 05:44:00;;;;;;;4.35;1.98;;;;;;;;;;4915887;29;20043;-68
2022/04/08 05:46:27;;;;;;;4.78;1.00;;;;;;;;;;4914234;29;20538;-68
2022/04/08 05:48:53;;;;;;;4.05;1.10;;;;;;;;;;4915924;29;20403;-68
2022/04/08 05:51:19;;;;;;;4.85;1.17;;;;;;;;;;4914734;29;20048;-68
2022/04/08 05:53:45;;;;;;;1.92;0.95;;;;;;;;;;4915537;29;20095;-68
2022/04/08 05:56:11;;;;;;;4.53;1.30;;;;;;;;;;4915942;29;20039;-68
2022/04/08 05:58:37;;;;;;;3.03;0.88;;;;;;;;;;4916006;29;20471;-68
2022/04/08 06:01:03;;;;;;;2.20;0.93;;;;;;;;;;4913938;29;20542;-68
2022/04/08 06:03:32;;;;;;;2.63;1.00;;;;;;;;;;4915941;29;20051;-68
2022/04/08 06:05:58;;;;;;;3.45;1.50;;;;;;;;;;4914533;29;20048;-68
2022/04/08 06:08:24;;;;;;;4.70;1.05;;;;;;;;;;4915257;29;20044;-68
2022/04/08 06:10:50;;;;;;;3.13;1.25;;;;;;;;;;4915910;29;20063;-68
2022/04/08 06:13:17;;;;;;;4.50;0.90;;;;;;;;;;4915870;29;20387;-68
2022/04/08 06:15:43;;;;;;;1.90;0.88;;;;;;;;;;4915157;29;20054;-67
2022/04/08 06:18:17;;;;;;;3.58;0.90;;;;;;;;;;4913747;29;20059;-67
2022/04/08 06:20:43;;;;;;;3.08;1.40;;;;;;;;;;4914191;29;20056;-67
2022/04/08 06:23:09;;;;;;;2.45;1.25;;;;;;;;;;4915109;29;20052;-67
2022/04/08 06:25:35;;;;;;;3.03;1.27;;;;;;;;;;4918392;29;20075;-68
2022/04/08 06:28:05;;;;;;;3.05;1.13;;;;;;;;;;4940010;29;20055;-65
2022/04/08 06:30:35;;;;;;;3.60;1.10;;;;;;;;;;4952224;29;20079;-66
2022/04/08 06:33:02;;;;;;;2.97;1.30;;;;;;;;;;4953114;29;20097;-66
2022/04/08 06:35:28;;;;;;;6.88;1.40;;;;;;;;;;4953266;29;20146;-66
2022/04/08 06:38:04;;;;;;;4.18;1.02;;;;;;;;;;4952571;29;20520;-66
2022/04/08 06:40:35;;;;;;;4.50;1.45;;;;;;;;;;4953329;29;20051;-66
2022/04/08 06:43:02;;;;;;;6.22;2.03;;;;;;;;;;4953207;28;20051;-66
2022/04/08 06:45:28;;;;;;;6.30;1.65;;;;;;;;;;4952528;29;20050;-66
2022/04/08 06:47:54;;;;;;;6.15;1.52;;;;;;;;;;4953149;29;20047;-66
2022/04/08 06:50:20;;;;;;;5.22;1.27;;;;;;;;;;4953288;29;20039;-66
2022/04/08 06:52:47;;;;;;;2.00;1.13;;;;;;;;;;4952654;29;20054;-66
2022/04/08 06:55:14;;;;;;;3.35;1.15;;;;;;;;;;4954349;29;20121;-67
2022/04/08 06:57:41;;;;;;;5.25;1.50;;;;;;;;;;4953770;29;20045;-67
2022/04/08 07:00:09;;;;;;;2.40;1.00;;;;;;;;;;4952512;29;20059;-67
2022/04/08 07:02:35;;;;;;;2.85;1.20;;;;;;;;;;4946825;28;20630;-69
2022/04/08 07:05:01;;;;;;;4.45;1.08;;;;;;;;;;4941619;29;20043;-65
2022/04/08 07:07:28;;;;;;;4.85;1.15;;;;;;;;;;4950301;29;20051;-67
2022/04/08 07:09:57;;;;;;;3.22;1.00;;;;;;;;;;4943535;28;20036;-70
2022/04/08 07:12:24;;;;;;;2.80;0.80;;;;;;;;;;4939336;29;20063;-71
2022/04/08 07:14:50;;;;;;;4.38;1.45;;;;;;;;;;4935694;29;20122;-67
2022/04/08 07:17:16;;;;;;;5.28;1.20;;;;;;;;;;4947669;29;20066;-67
2022/04/08 07:19:42;;;;;;;2.45;1.00;;;;;;;;;;4952258;29;20525;-70
2022/04/08 07:22:08;;;;;;;5.70;1.60;;;;;;;;;;4935770;29;20051;-71
2022/04/08 07:24:34;;;;;;;5.07;1.25;;;;;;;;;;4930468;29;20055;-70
2022/04/08 07:27:01;;;;;;;5.53;1.17;;;;;;;;;;4935143;29;20094;-70
2022/04/08 07:29:27;;;;;;;5.82;1.00;;;;;;;;;;4943184;28;20047;-70
2022/04/08 07:31:54;;;;;;;5.72;2.15;;;;;;;;;;4951069;29;20079;-70
2022/04/08 07:34:20;;;;;;;3.08;1.00;;;;;;;;;;4951518;29;20051;-69
2022/04/08 07:36:47;;;;;;;4.40;1.17;;;;;;;;;;4940757;29;20039;-72
2022/04/08 07:39:13;;;;;;;4.03;1.17;;;;;;;;;;4949904;29;20051;-71
2022/04/08 07:41:39;;;;;;;4.70;1.90;;;;;;;;;;4958257;28;20043;-70
2022/04/08 07:44:05;;;;;;;9.30;1.75;;;;;;;;;;4943009;29;20075;-69
2022/04/08 07:46:31;;;;;;;7.50;1.38;;;;;;;;;;4944546;29;20118;-71
2022/04/08 07:48:57;;;;;;;6.25;1.98;;;;;;;;;;4935972;29;20052;-71
2022/04/08 07:51:23;;;;;;;4.35;1.60;;;;;;;;;;4950764;29;20679;-70
2022/04/08 07:53:49;;;;;;;8.07;2.17;;;;;;;;;;4951941;29;20051;-68
2022/04/08 07:56:15;;;;;;;6.75;2.00;;;;;;;;;;4947995;29;20055;-71
2022/04/08 07:58:41;;;;;;;5.88;1.70;;;;;;;;;;4948587;29;20434;-63
2022/04/08 08:01:08;;;;;;;8.63;2.13;;;;;;;;;;4954159;29;20118;-66
2022/04/08 08:03:34;;;;;;;12.27;2.10;;;;;;;;;;4941145;29;20051;-65
2022/04/08 08:06:01;;;;;;;9.15;2.15;;;;;;;;;;4945135;29;20070;-65
2022/04/08 08:08:27;;;;;;;6.97;1.88;;;;;;;;;;4943133;29;20039;-65
2022/04/08 08:10:54;;;;;;;6.35;1.70;;;;;;;;;;4953197;29;20748;-63
2022/04/08 08:13:21;;;;;;;6.75;1.75;;;;;;;;;;4950465;29;20058;-66
2022/04/08 08:15:47;;;;;;;7.45;1.83;;;;;;;;;;4940205;29;20043;-70
2022/04/08 08:18:13;;;;;;;6.90;1.77;;;;;;;;;;4948692;29;20051;-71
2022/04/08 08:20:39;;;;;;;6.80;1.60;;;;;;;;;;4949037;29;20671;-68
2022/04/08 08:23:08;;;;;;;7.00;2.03;;;;;;;;;;4940516;29;20052;-68
2022/04/08 08:25:34;;;;;;;7.78;1.88;;;;;;;;;;4951509;29;20050;-68
2022/04/08 08:28:02;;;;;;;6.10;2.03;;;;;;;;;;4940415;29;20089;-68
2022/04/08 08:30:29;;;;;;;4.10;1.20;;;;;;;;;;4937703;28;20044;-68
2022/04/08 08:32:55;;;;;;;4.00;1.40;;;;;;;;;;4951287;29;20467;-67
2022/04/08 08:35:22;;;;;;;7.10;1.75;;;;;;;;;;4938008;29;20126;-67
2022/04/08 08:37:49;;;;;;;4.03;1.50;;;;;;;;;;4953484;29;20098;-66
2022/04/08 08:40:16;;;;;;;6.72;1.67;;;;;;;;;;4943234;29;20039;-67
2022/04/08 08:42:42;;;;;;;4.82;1.65;;;;;;;;;;4954092;28;20471;-67
2022/04/08 08:45:10;;;;;;;3.95;1.95;;;;;;;;;;4945876;29;20047;-71
2022/04/08 08:47:36;;;;;;;4.03;1.40;;;;;;;;;;4943254;29;20043;-71
2022/04/08 08:50:03;;;;;;;6.50;1.63;;;;;;;;;;4953158;29;20039;-67
2022/04/08 08:52:29;;;;;;;2.95;1.45;;;;;;;;;;4953574;29;20155;-68
2022/04/08 08:54:55;;;;;;;6.57;1.75;;;;;;;;;;4938913;29;20059;-67
2022/04/08 08:57:22;;;;;;;7.07;1.50;;;;;;;;;;4949410;29;20039;-68
2022/04/08 08:59:48;;;;;;;6.55;1.60;;;;;;;;;;4932358;29;20043;-69
2022/04/08 09:02:18;;;;;;;8.02;1.80;;;;;;;;;;4941346;29;20062;-69
2022/04/08 09:04:45;;;;;;;6.50;2.03;;;;;;;;;;4966385;28;20541;-70
2022/04/08 09:07:26;;;;;;;7.53;2.13;;;;;;;;;;4934013;29;20082;-69
2022/04/08 09:09:53;;;;;;;14.48;2.42;;;;;;;;;;4937620;29;20394;-70
2022/04/08 09:12:19;;;;;;;9.50;1.98;;;;;;;;;;4937973;29;20125;-69
2022/04/08 09:14:52;;;;;;;11.88;3.00;;;;;;;;;;4932522;29;20697;-71
2022/04/08 09:17:19;;;;;;;8.45;2.47;;;;;;;;;;4927662;29;20062;-69
2022/04/08 09:19:52;;;;;;;8.25;2.55;;;;;;;;;;4933179;29;20076;-67
2022/04/08 09:22:19;;;;;;;9.50;2.25;;;;;;;;;;4945190;29;20047;-67
2022/04/08 09:24:45;;;;;;;9.35;2.38;;;;;;;;;;4944568;29;20047;-69
2022/04/08 09:27:11;;;;;;;13.45;3.10;;;;;;;;;;4931645;29;20048;-70
2022/04/08 09:29:38;;;;;;;10.77;3.00;;;;;;;;;;4952119;29;20371;-71
2022/04/08 09:32:10;;;;;;;14.73;2.90;;;;;;;;;;4950141;29;20059;-68
2022/04/08 09:34:37;;;;;;;14.82;3.00;;;;;;;;;;4932997;29;20059;-68
2022/04/08 09:37:10;;;;;;;21.27;3.80;;;;;;;;;;4948045;29;20572;-67
2022/04/08 09:39:37;;;;;;;12.23;2.80;;;;;;;;;;4942306;28;20054;-67
2022/04/08 09:42:06;;;;;;;12.85;2.70;;;;;;;;;;4941889;28;20118;-68
2022/04/08 09:44:35;;;;;;;12.00;2.75;;;;;;;;;;4946855;28;20051;-68
2022/04/08 09:47:02;;;;;;;14.82;3.22;;;;;;;;;;4931879;29;20058;-70
2022/04/08 09:49:28;;;;;;;13.23;2.90;;;;;;;;;;4939478;29;20040;-68
2022/04/08 09:51:55;;;;;;;11.10;3.80;;;;;;;;;;4937070;29;20070;-67
2022/04/08 09:54:22;;;;;;;8.55;2.88;;;;;;;;;;4952868;28;20677;-67
2022/04/08 09:56:49;;;;;;;13.82;3.63;;;;;;;;;;4950070;29;20039;-68
2022/04/08 09:59:23;;;;;;;13.27;2.85;;;;;;;;;;4951019;29;20632;-68
2022/04/08 10:01:51;;;;;;;12.38;2.95;;;;;;;;;;4943337;29;20059;-67
2022/04/08 10:04:19;;;;;;;16.85;2.90;;;;;;;;;;4941016;29;20062;-66
2022/04/08 10:06:46;;;;;;;8.70;2.88;;;;;;;;;;4952306;29;20126;-68
2022/04/08 10:09:17;;;;;;;9.77;2.83;;;;;;;;;;4951484;29;20035;-68
2022/04/08 10:11:46;;;;;;;11.57;3.13;;;;;;;;;;4922645;29;20071;-68
2022/04/08 10:14:26;;;;;;;9.63;3.03;;;;;;;;;;4950823;29;20063;-68
2022/04/08 10:16:53;;;;;;;12.30;2.30;;;;;;;;;;4952706;29;20449;-68
2022/04/08 10:19:20;;;;;;;11.35;2.50;;;;;;;;;;4934022;29;20039;-65
2022/04/08 10:21:51;;;;;;;13.77;3.08;;;;;;;;;;4925107;29;20104;-66
2022/04/08 10:24:22;;;;;;;10.52;2.67;;;;;;;;;;4935990;29;20179;-65
2022/04/08 10:26:56;;;;;;;9.52;2.25;;;;;;;;;;4944974;29;20046;-66
2022/04/08 10:29:22;;;;;;;16.52;3.20;;;;;;;;;;4930820;29;20046;-67
2022/04/08 10:32:03;;;;;;;11.07;2.80;;;;;;;;;;4931282;29;20040;-65
2022/04/08 10:34:32;;;;;;;12.35;2.90;;;;;;;;;;4942675;29;20084;-69
2022/04/08 10:37:02;;;;;;;5.18;2.03;;;;;;;;;;4936250;29;20043;-66
2022/04/08 10:39:28;;;;;;;9.23;2.70;;;;;;;;;;4944686;29;20546;-68
2022/04/08 10:41:58;;;;;;;8.52;2.30;;;;;;;;;;4944273;28;20058;-67
2022/04/08 10:44:35;;;;;;;9.05;1.92;;;;;;;;;;4952659;28;20812;-68
2022/04/08 10:47:21;;;;;;;9.00;2.10;;;;;;;;;;4943814;29;20047;-69
2022/04/08 10:50:04;;;;;;;6.85;2.22;;;;;;;;;;4929665;29;20450;-68
2022/04/08 10:52:32;;;;;;;6.55;1.73;;;;;;;;;;4940610;29;20391;-67
2022/04/08 10:55:09;;;;;;;4.28;1.60;;;;;;;;;;4948265;29;20049;-66
2022/04/08 10:57:36;;;;;;;4.70;1.20;;;;;;;;;;4939625;29;20384;-66
2022/04/08 11:00:10;;;;;;;5.43;1.50;;;;;;;;;;4943142;29;20119;-67
2022/04/08 11:02:37;;;;;;;5.18;1.55;;;;;;;;;;4950189;29;20071;-66
2022/04/08 11:05:07;;;;;;;7.15;1.58;;;;;;;;;;4944983;28;20044;-66
2022/04/08 11:07:33;;;;;;;3.70;1.48;;;;;;;;;;4944446;29;20046;-65
2022/04/08 11:09:59;;;;;;;6.53;1.90;;;;;;;;;;4947995;29;20039;-66
2022/04/08 11:12:25;;;;;;;8.85;2.17;;;;;;;;;;4941659;29;20051;-65
2022/04/08 11:14:57;;;;;;;6.82;2.28;;;;;;;;;;4946956;28;20054;-66
2022/04/08 11:17:23;;;;;;;7.07;1.95;;;;;;;;;;4947335;29;20061;-65
2022/04/08 11:19:51;;;;;;;6.85;2.03;;;;;;;;;;4951706;29;20039;-65
2022/04/08 11:22:17;;;;;;;7.10;2.20;;;;;;;;;;4942771;29;20039;-66
2022/04/08 11:24:43;;;;;;;6.68;2.10;;;;;;;;;;4943780;29;20043;-65
2022/04/08 11:27:10;;;;;;;5.82;1.95;;;;;;;;;;4952293;28;20098;-66
2022/04/08 11:29:37;;;;;;;5.60;1.88;;;;;;;;;;4948752;29;20122;-66
2022/04/08 11:32:08;;;;;;;8.43;1.80;;;;;;;;;;4934420;29;20040;-65
2022/04/08 11:34:34;;;;;;;8.60;1.90;;;;;;;;;;4944593;29;20542;-66
2022/04/08 11:37:00;;;;;;;10.90;2.10;;;;;;;;;;4941659;29;20051;-66
2022/04/08 11:39:27;;;;;;;8.07;1.85;;;;;;;;;;4949091;29;20090;-66
2022/04/08 11:41:54;;;;;;;5.97;1.45;;;;;;;;;;4940229;28;20707;-67
2022/04/08 11:44:21;;;;;;;4.30;1.40;;;;;;;;;;4947802;28;20043;-67
2022/04/08 11:46:47;;;;;;;9.63;1.67;;;;;;;;;;4941309;29;20040;-66
2022/04/08 11:49:14;;;;;;;4.40;1.40;;;;;;;;;;4930910;29;20035;-65
2022/04/08 11:51:40;;;;;;;5.75;1.42;;;;;;;;;;4943708;29;20091;-66
2022/04/08 11:54:06;;;;;;;6.35;1.30;;;;;;;;;;4941344;29;20054;-66
2022/04/08 11:56:32;;;;;;;8.00;1.65;;;;;;;;;;4940113;29;20100;-66
2022/04/08 11:59:03;;;;;;;7.65;1.92;;;;;;;;;;4950338;29;20062;-67
2022/04/08 12:01:33;;;;;;;5.78;1.40;;;;;;;;;;4937266;28;20060;-67
2022/04/08 12:04:03;;;;;;;6.95;1.48;;;;;;;;;;4930777;29;20095;-68
2022/04/08 12:06:39;;;;;;;8.38;1.80;;;;;;;;;;4927164;29;20127;-67
2022/04/08 12:09:06;;;;;;;10.13;1.50;;;;;;;;;;4941325;29;20533;-68
2022/04/08 12:11:35;;;;;;;4.97;1.73;;;;;;;;;;4937972;29;20416;-67
2022/04/08 12:14:03;;;;;;;7.28;1.77;;;;;;;;;;4939072;29;20040;-68
2022/04/08 12:16:30;;;;;;;6.50;2.30;;;;;;;;;;4930390;29;20042;-67
2022/04/08 12:18:56;;;;;;;11.43;2.10;;;;;;;;;;4930593;28;20088;-67
2022/04/08 12:21:24;;;;;;;7.78;1.60;;;;;;;;;;4932405;29;20060;-65
2022/04/08 12:23:50;;;;;;;9.32;1.75;;;;;;;;;;4933409;29;20043;-68
2022/04/08 12:26:17;;;;;;;7.60;1.80;;;;;;;;;;4943263;29;20482;-68
2022/04/08 12:28:43;;;;;;;6.00;1.80;;;;;;;;;;4947258;28;20048;-67
2022/04/08 12:31:13;;;;;;;10.40;2.25;;;;;;;;;;4930076;29;20036;-67
2022/04/08 12:33:39;;;;;;;4.75;1.30;;;;;;;;;;4932524;29;20724;-70
2022/04/08 12:36:09;;;;;;;6.65;1.33;;;;;;;;;;4943119;29;20040;-68
2022/04/08 12:38:36;;;;;;;4.43;1.13;;;;;;;;;;4924925;29;20537;-67
2022/04/08 12:41:02;;;;;;;2.90;0.93;;;;;;;;;;4931662;29;20039;-65
2022/04/08 12:43:28;;;;;;;5.75;1.00;;;;;;;;;;4934389;28;20047;-68
2022/04/08 12:45:54;;;;;;;4.82;0.80;;;;;;;;;;4931409;29;20051;-66
2022/04/08 12:48:20;;;;;;;5.65;1.00;;;;;;;;;;4942418;29;20039;-66
2022/04/08 12:50:47;;;;;;;7.13;1.27;;;;;;;;;;4935048;29;20126;-67
2022/04/08 12:53:13;;;;;;;5.30;1.17;;;;;;;;;;4936099;29;20066;-67
2022/04/08 12:55:39;;;;;;;4.68;1.10;;;;;;;;;;4940255;29;20690;-66
2022/04/08 12:58:05;;;;;;;5.05;1.08;;;;;;;;;;4930452;29;20119;-66
2022/04/08 13:00:31;;;;;;;5.65;1.25;;;;;;;;;;4935312;29;20067;-66
2022/04/08 13:02:57;;;;;;;3.13;1.15;;;;;;;;;;4932580;29;20054;-69
2022/04/08 13:05:23;;;;;;;3.83;1.00;;;;;;;;;;4931563;29;20046;-68
2022/04/08 13:07:52;;;;;;;8.32;0.93;;;;;;;;;;4937847;29;20039;-67
2022/04/08 13:10:18;;;;;;;8.32;1.38;;;;;;;;;;4948831;28;20110;-67
2022/04/08 13:12:44;;;;;;;6.65;1.25;;;;;;;;;;4946284;29;20054;-67
2022/04/08 13:15:10;;;;;;;8.45;1.35;;;;;;;;;;4948982;29;20039;-67
2022/04/08 13:17:37;;;;;;;6.07;1.45;;;;;;;;;;4927825;29;20051;-67
2022/04/08 13:20:03;;;;;;;4.50;1.08;;;;;;;;;;4945597;29;20132;-67
2022/04/08 13:22:29;;;;;;;8.90;1.60;;;;;;;;;;4945317;29;20075;-66
2022/04/08 13:24:55;;;;;;;6.28;1.48;;;;;;;;;;4927351;29;20047;-67
2022/04/08 13:27:24;;;;;;;4.95;0.90;;;;;;;;;;4944949;28;20634;-66
2022/04/08 13:29:51;;;;;;;4.65;0.77;;;;;;;;;;4937109;29;20043;-67
2022/04/08 13:32:22;;;;;;;4.25;0.82;;;;;;;;;;4931180;29;20933;-68
2022/04/08 13:34:48;;;;;;;3.85;1.05;;;;;;;;;;4937437;29;20139;-69
2022/04/08 13:37:15;;;;;;;3.30;0.82;;;;;;;;;;4910610;29;20062;-68
2022/04/08 13:39:42;;;;;;;9.80;1.33;;;;;;;;;;4941893;29;20409;-68
2022/04/08 13:42:09;;;;;;;5.53;0.93;;;;;;;;;;4950520;28;20078;-69
2022/04/08 13:44:35;;;;;;;4.72;0.90;;;;;;;;;;4941376;29;20035;-68
2022/04/08 13:47:01;;;;;;;6.22;0.75;;;;;;;;;;4924490;29;20106;-70
2022/04/08 13:49:27;;;;;;;2.55;0.55;;;;;;;;;;4924070;29;20035;-69
2022/04/08 13:51:54;;;;;;;4.20;0.80;;;;;;;;;;4942223;29;20054;-69
2022/04/08 13:54:20;;;;;;;3.00;0.68;;;;;;;;;;4927964;29;20166;-68
2022/04/08 13:56:46;;;;;;;6.72;1.17;;;;;;;;;;4937322;29;20581;-69
2022/04/08 13:59:12;;;;;;;8.75;1.20;;;;;;;;;;4930526;29;20498;-69
2022/04/08 14:01:38;;;;;;;4.20;0.95;;;;;;;;;;4912025;29;20187;-69
2022/04/08 14:04:06;;;;;;;4.68;0.98;;;;;;;;;;4936843;29;20499;-68
2022/04/08 14:06:32;;;;;;;4.85;1.00;;;;;;;;;;4939701;29;20044;-67
2022/04/08 14:08:58;;;;;;;2.97;0.95;;;;;;;;;;4950549;29;20434;-68
2022/04/08 14:11:26;;;;;;;4.50;0.90;;;;;;;;;;4951821;29;20098;-68
2022/04/08 14:13:52;;;;;;;8.02;1.02;;;;;;;;;;4934629;29;20043;-68
2022/04/08 14:16:18;;;;;;;4.03;0.98;;;;;;;;;;4946868;29;20475;-68
2022/04/08 14:18:44;;;;;;;4.95;1.00;;;;;;;;;;4953039;29;20051;-68
2022/04/08 14:21:10;;;;;;;5.25;0.90;;;;;;;;;;4951875;29;20047;-68
2022/04/08 14:23:36;;;;;;;4.72;1.20;;;;;;;;;;4953184;29;20039;-68
2022/04/08 14:26:02;;;;;;;3.88;0.93;;;;;;;;;;4944542;29;20087;-68
2022/04/08 14:28:28;;;;;;;4.53;0.90;;;;;;;;;;4967713;28;20407;-68
2022/04/08 14:30:54;;;;;;;6.03;0.80;;;;;;;;;;4952673;29;20047;-68
2022/04/08 14:33:20;;;;;;;5.80;0.90;;;;;;;;;;4952318;29;20078;-69
2022/04/08 14:35:47;;;;;;;4.85;1.02;;;;;;;;;;4951596;29;20663;-68
2022/04/08 14:38:13;;;;;;;5.07;0.68;;;;;;;;;;4953506;29;20394;-69
2022/04/08 14:40:40;;;;;;;3.22;0.70;;;;;;;;;;4952618;28;20044;-69